Terminal Aerodrome Forecast
Issued by NWS

Home | Current Version | Previous Version | Text Only | Print | Product List | Glossary On
Versions: 1 2 3 4 5 6 7 8 9 10 11 12 13 14
000
FTUS46 KLOX 031739
TAFBUR
TAF
KBUR 031739Z 0318/0418 11009G15KT P6SM SKC
     FM031900 17010KT P6SM SCT250
     FM040400 VRB03KT 5SM HZ SKC
     FM040900 VRB03KT 5SM BR BKN007=

USA.gov is the U.S. government's official web portal to all federal, state and local government web resources and services.